Time;durP1;ratioP1;P1;durP2;ratioP2;P2;SDS_P1;SDS_P2;PMS_P1;PMS_P2;Temp;Humidity;BMP_temperature;BMP_pressure;BME280_temperature;BME280_humidity;BME280_pressure;Samples;Min_cycle;Max_cycle;Signal;HPM_P1;HPM_P2
2021/12/13 00:03:27;;;;;;;252.27;102.67;;;;;;;-4.86;90.29;99817.73;4160226;85;21032;-90
2021/12/13 00:09:33;;;;;;;218.37;90.50;;;;;;;-4.99;89.64;99820.30;4207106;83;21045;-87
2021/12/13 00:15:40;;;;;;;222.30;91.00;;;;;;;-5.19;89.24;99839.33;4227894;83;21154;-86
2021/12/13 00:21:47;;;;;;;230.50;91.50;;;;;;;-5.22;90.20;99839.83;4076768;86;21655;-85
2021/12/13 00:28:03;;;;;;;269.00;107.63;;;;;;;-5.01;90.96;99827.75;4244663;83;21098;-86
2021/12/13 00:34:35;;;;;;;244.93;96.57;;;;;;;-4.89;90.92;99828.92;4241406;83;21043;-85
2021/12/13 00:40:46;;;;;;;243.90;99.70;;;;;;;-4.80;90.45;99830.06;4236986;83;21105;-90
2021/12/13 00:46:52;;;;;;;239.97;93.93;;;;;;;-5.01;89.69;99829.60;4230615;83;21957;-87
2021/12/13 00:52:55;;;;;;;217.30;84.37;;;;;;;-5.13;89.59;99829.78;4246448;83;21598;-86
2021/12/13 00:58:56;;;;;;;234.87;94.33;;;;;;;-5.22;90.05;99835.31;4231217;83;21089;-86
2021/12/13 01:05:08;;;;;;;251.67;98.70;;;;;;;-5.29;89.39;99837.36;4148369;84;21070;-87
2021/12/13 01:11:56;;;;;;;236.33;98.60;;;;;;;-5.35;89.41;99840.22;4100553;86;21012;-86
2021/12/13 01:18:19;;;;;;;230.80;94.60;;;;;;;-5.41;89.82;99834.04;4156972;84;21546;-85
2021/12/13 01:24:15;;;;;;;251.10;97.27;;;;;;;-5.42;90.46;99839.63;4158493;84;21103;-88
2021/12/13 01:30:28;;;;;;;226.50;89.20;;;;;;;-5.23;90.97;99830.22;4122606;84;21092;-87
2021/12/13 01:36:44;;;;;;;201.27;79.27;;;;;;;-5.08;90.95;99838.36;4159249;84;21079;-85
2021/12/13 01:42:42;;;;;;;191.83;76.87;;;;;;;-4.99;90.93;99843.00;4252969;83;21046;-87
2021/12/13 01:48:48;;;;;;;187.77;71.90;;;;;;;-4.95;90.64;99842.75;4234880;83;21031;-85
2021/12/13 01:54:51;;;;;;;189.93;77.20;;;;;;;-5.14;89.72;99846.05;4238945;83;21062;-87
2021/12/13 02:01:10;;;;;;;192.67;78.83;;;;;;;-5.37;90.54;99845.03;4248860;83;21058;-86
2021/12/13 02:07:14;;;;;;;199.40;79.07;;;;;;;-5.46;89.81;99829.98;4232616;83;21070;-89
2021/12/13 02:13:26;;;;;;;205.03;79.67;;;;;;;-5.36;90.84;99835.95;4252458;83;21855;-87
2021/12/13 02:19:39;;;;;;;187.40;77.63;;;;;;;-5.35;90.23;99817.54;4252292;83;21002;-87
2021/12/13 02:25:47;;;;;;;191.33;77.50;;;;;;;-5.61;89.45;99789.81;4229347;83;21658;-87
2021/12/13 02:31:49;;;;;;;186.87;74.77;;;;;;;-5.82;89.27;99783.19;4205661;83;21103;-87
2021/12/13 02:37:51;;;;;;;210.87;82.07;;;;;;;-5.89;90.31;99783.40;4233024;83;21043;-87
2021/12/13 02:43:58;;;;;;;221.70;88.70;;;;;;;-5.72;90.55;99788.61;4236148;83;21680;-85
2021/12/13 02:50:02;;;;;;;218.63;84.07;;;;;;;-5.59;90.92;99796.23;4228206;83;21637;-87
2021/12/13 02:56:05;;;;;;;222.20;88.40;;;;;;;-5.51;90.65;99799.79;4206005;83;21118;-86
2021/12/13 03:02:24;;;;;;;215.87;88.00;;;;;;;-5.62;90.28;99795.40;4239122;83;21031;-87
2021/12/13 03:08:31;;;;;;;218.73;83.83;;;;;;;-5.59;90.55;99792.23;4235458;83;21070;-86
2021/12/13 03:14:40;;;;;;;207.00;82.43;;;;;;;-5.83;89.08;99793.58;4235980;83;21046;-86
2021/12/13 03:21:00;;;;;;;212.23;84.13;;;;;;;-6.04;88.93;99802.37;4231062;83;21091;-87
2021/12/13 03:27:33;;;;;;;202.30;81.23;;;;;;;-6.16;89.38;99813.69;4145726;84;21102;-86
2021/12/13 03:33:57;;;;;;;206.60;79.23;;;;;;;-6.32;89.34;99813.20;4228046;83;22273;-86
2021/12/13 03:40:06;;;;;;;194.90;78.53;;;;;;;-6.32;89.75;99811.36;4242787;83;21071;-88
2021/12/13 03:46:12;;;;;;;204.67;80.07;;;;;;;-6.18;89.65;99811.28;4231378;83;21046;-86
2021/12/13 03:52:19;;;;;;;200.93;80.47;;;;;;;-6.07;90.33;99811.69;4238470;83;21097;-87
2021/12/13 03:58:24;;;;;;;195.90;77.40;;;;;;;-6.18;89.22;99817.13;4245255;83;21069;-85
2021/12/13 04:04:34;;;;;;;215.47;84.25;;;;;;;-6.44;88.94;99821.83;4239599;83;21087;-86
2021/12/13 04:10:48;;;;;;;211.77;86.60;;;;;;;-6.37;90.44;99825.94;4218848;83;21094;-86
2021/12/13 04:17:19;;;;;;;192.73;79.53;;;;;;;-6.16;90.72;99830.50;4231762;83;21050;-86
2021/12/13 04:23:18;;;;;;;188.10;76.77;;;;;;;-6.04;90.54;99832.52;4226834;83;21055;-86
2021/12/13 04:29:26;;;;;;;179.43;74.80;;;;;;;-6.15;89.46;99817.99;4148386;84;21086;-87
2021/12/13 04:35:29;;;;;;;209.17;78.97;;;;;;;-6.39;88.96;99820.58;4151509;84;21129;-87
2021/12/13 04:41:38;;;;;;;185.97;74.47;;;;;;;-6.57;89.65;99837.11;4146991;84;21027;-87
2021/12/13 04:48:07;;;;;;;183.50;76.67;;;;;;;-6.43;90.26;99833.58;4156216;84;21044;-86
2021/12/13 04:54:15;;;;;;;191.73;75.80;;;;;;;-6.28;90.34;99827.14;4161990;84;21148;-87
2021/12/13 05:00:22;;;;;;;210.67;83.23;;;;;;;-6.41;89.23;99834.66;4157288;84;21066;-86
2021/12/13 05:06:29;;;;;;;198.78;78.42;;;;;;;-6.58;89.51;99836.81;4162667;84;21076;-87
2021/12/13 05:12:30;;;;;;;212.17;85.73;;;;;;;-6.66;89.06;99841.76;4154610;84;21089;-86
2021/12/13 05:18:33;;;;;;;204.13;82.13;;;;;;;-6.86;89.23;99832.13;4124125;85;46100;-86
2021/12/13 05:24:43;;;;;;;210.33;84.07;;;;;;;-6.72;89.83;99819.55;4123413;85;21067;-86
2021/12/13 05:30:57;;;;;;;210.23;84.90;;;;;;;-6.84;89.21;99830.01;4125489;85;21135;-87
2021/12/13 05:37:04;;;;;;;202.07;78.90;;;;;;;-6.98;88.96;99839.36;4137724;85;21094;-86
2021/12/13 05:43:26;;;;;;;183.60;77.27;;;;;;;-6.76;90.09;99845.58;4122258;85;21063;-87
2021/12/13 05:49:38;;;;;;;210.00;81.30;;;;;;;-6.78;89.40;99853.81;4140974;84;22172;-87
2021/12/13 05:55:57;;;;;;;200.43;78.13;;;;;;;-6.68;90.24;99856.65;4194292;84;21094;-89
2021/12/13 06:02:16;;;;;;;213.23;82.37;;;;;;;-6.67;89.33;99864.91;4193867;84;21681;-87
2021/12/13 06:08:29;;;;;;;208.17;82.73;;;;;;;-6.57;90.16;99873.07;4192011;84;21085;-87
2021/12/13 06:14:30;;;;;;;216.43;82.67;;;;;;;-6.47;90.00;99881.75;4196936;84;21010;-86
2021/12/13 06:20:52;;;;;;;209.93;78.30;;;;;;;-6.52;89.43;99888.31;4197107;84;21632;-87
2021/12/13 06:27:15;;;;;;;203.47;78.27;;;;;;;-6.81;89.34;99884.91;4156615;83;21118;-88
2021/12/13 06:33:16;;;;;;;204.00;78.67;;;;;;;-6.67;90.18;99894.75;4041854;86;21848;-86
2021/12/13 06:39:29;;;;;;;209.10;82.73;;;;;;;-6.48;90.42;99898.76;4020717;87;21202;-86
2021/12/13 06:45:36;;;;;;;207.27;80.73;;;;;;;-6.57;89.09;99900.22;4030080;87;21709;-89
2021/12/13 06:52:10;;;;;;;190.50;79.03;;;;;;;-6.83;88.80;99904.30;4144316;85;21125;-87
2021/12/13 06:58:23;;;;;;;214.60;87.57;;;;;;;-6.99;89.05;99929.06;4050398;86;21063;-87
2021/12/13 07:04:26;;;;;;;226.80;93.97;;;;;;;-6.96;89.68;99935.76;4042350;86;21436;-88
2021/12/13 07:10:38;;;;;;;219.40;88.23;;;;;;;-6.77;90.28;99937.17;4025328;87;21637;-86
2021/12/13 07:16:44;;;;;;;213.03;88.10;;;;;;;-6.50;90.12;99932.84;4022447;87;21345;-87
2021/12/13 07:22:51;;;;;;;228.93;97.50;;;;;;;-6.54;89.73;99941.02;4144841;85;20988;-87
2021/12/13 07:28:53;;;;;;;227.93;86.40;;;;;;;-6.41;90.03;99943.38;4111265;85;21076;-87
2021/12/13 07:35:03;;;;;;;229.70;95.40;;;;;;;-6.23;89.98;99955.11;4122395;85;21023;-86
2021/12/13 07:41:07;;;;;;;208.67;89.20;;;;;;;-5.82;90.66;99965.33;4125431;85;21058;-85
2021/12/13 07:47:24;;;;;;;215.83;86.63;;;;;;;-5.43;90.41;99966.08;4123072;85;21130;-86
2021/12/13 07:53:28;;;;;;;203.90;84.90;;;;;;;-5.27;90.20;99976.70;4108033;85;47743;-85
2021/12/13 07:59:37;;;;;;;234.77;98.43;;;;;;;-5.06;90.34;99983.09;4089319;86;21080;-88
2021/12/13 08:05:50;;;;;;;227.47;98.67;;;;;;;-4.79;90.36;99989.25;4084962;85;21059;-86
2021/12/13 08:11:59;;;;;;;219.57;97.40;;;;;;;-4.62;90.16;99991.33;4088888;85;21107;-86
2021/12/13 08:18:06;;;;;;;208.30;90.57;;;;;;;-4.55;90.56;99986.58;4088071;86;21666;-86
2021/12/13 08:24:23;;;;;;;196.43;88.93;;;;;;;-4.31;90.49;99991.89;4088810;85;21413;-87
2021/12/13 08:30:33;;;;;;;194.20;86.60;;;;;;;-4.07;91.00;99990.47;4086847;86;21074;-86
2021/12/13 08:36:47;;;;;;;195.77;89.80;;;;;;;-3.72;91.11;99991.25;4089545;85;21154;-87
2021/12/13 08:42:51;;;;;;;199.50;90.77;;;;;;;-3.43;90.93;99995.19;4090372;85;21118;-86
2021/12/13 08:48:53;;;;;;;233.63;106.70;;;;;;;-3.29;91.21;100005.15;4097412;86;21083;-86
2021/12/13 08:55:14;;;;;;;200.60;90.83;;;;;;;-2.84;91.43;100008.56;4066465;87;21591;-86
2021/12/13 09:01:17;;;;;;;179.67;80.80;;;;;;;-2.38;91.28;100007.59;4088775;86;21075;-86
2021/12/13 09:07:22;;;;;;;154.40;71.63;;;;;;;-1.88;91.51;100000.12;4090643;85;21075;-87
2021/12/13 09:13:41;;;;;;;150.13;71.10;;;;;;;-1.16;91.85;100006.41;4090407;85;21091;-87
2021/12/13 09:20:06;;;;;;;155.57;73.47;;;;;;;-0.65;91.40;99997.85;4091261;86;21088;-85
2021/12/13 09:26:16;;;;;;;170.72;78.90;;;;;;;-0.28;90.72;99986.57;4086441;84;21107;-87
2021/12/13 09:32:19;;;;;;;158.93;76.60;;;;;;;0.07;90.87;99990.88;4076149;85;21126;-88
2021/12/13 09:38:45;;;;;;;167.22;74.40;;;;;;;0.55;90.69;99993.95;4089134;86;21141;-87
2021/12/13 09:45:02;;;;;;;149.85;71.80;;;;;;;0.97;90.88;99971.88;4160853;84;21619;-89
2021/12/13 09:51:08;;;;;;;147.40;71.02;;;;;;;1.60;90.83;99965.09;4104212;86;21147;-88
2021/12/13 09:57:14;;;;;;;136.00;68.60;;;;;;;2.15;90.68;99963.94;4167590;84;21093;-88
2021/12/13 10:03:27;;;;;;;123.62;61.02;;;;;;;2.40;89.51;99956.19;4082215;86;21038;-88
2021/12/13 10:09:34;;;;;;;111.22;55.20;;;;;;;2.44;88.86;99957.76;4087894;86;21098;-88
2021/12/13 10:15:44;;;;;;;105.03;51.05;;;;;;;2.74;89.09;99953.91;4088756;85;21147;-87
2021/12/13 10:21:47;;;;;;;122.55;61.85;;;;;;;3.02;88.24;99962.27;4093039;86;21552;-87
2021/12/13 10:27:51;;;;;;;141.68;71.82;;;;;;;3.10;87.70;99964.84;4114149;85;21090;-89
2021/12/13 10:33:56;;;;;;;207.52;103.67;;;;;;;3.14;87.59;99972.59;4122649;85;21043;-89
2021/12/13 10:40:03;;;;;;;197.07;100.00;;;;;;;3.10;86.80;99964.84;4110969;85;21122;-87
2021/12/13 10:46:11;;;;;;;172.75;87.45;;;;;;;3.13;87.00;99961.53;4118759;85;21610;-87
2021/12/13 10:52:25;;;;;;;161.40;81.60;;;;;;;2.94;86.25;99961.62;4115694;85;21686;-86
2021/12/13 10:58:33;;;;;;;146.43;73.45;;;;;;;2.76;86.05;99953.07;4121063;85;21086;-91
2021/12/13 11:04:40;;;;;;;140.18;72.27;;;;;;;2.68;86.04;99951.61;4113526;85;21071;-89
2021/12/13 11:10:47;;;;;;;116.97;59.38;;;;;;;2.50;85.90;99937.64;4111957;85;21150;-87
2021/12/13 11:16:58;;;;;;;138.95;67.53;;;;;;;2.44;85.50;99946.41;4113635;85;21067;-88
2021/12/13 11:23:01;;;;;;;131.25;65.60;;;;;;;2.36;85.40;99947.09;4118372;85;21090;-89
2021/12/13 11:29:10;;;;;;;128.32;65.85;;;;;;;2.42;85.03;99950.48;4139618;84;21121;-88
2021/12/13 11:35:32;;;;;;;128.65;59.18;;;;;;;2.09;85.11;99942.16;4145774;84;21054;-90
2021/12/13 11:42:07;;;;;;;122.40;61.45;;;;;;;2.06;85.37;99943.57;4145764;84;21086;-88
2021/12/13 11:48:47;;;;;;;129.72;63.98;;;;;;;1.74;83.51;99943.55;4141731;84;21081;-89
2021/12/13 11:55:28;;;;;;;137.12;67.80;;;;;;;1.36;85.06;99948.16;4078324;86;22148;-89
2021/12/13 12:02:17;;;;;;;152.47;74.95;;;;;;;1.25;84.50;99930.52;4085264;86;21081;-89
2021/12/13 12:08:57;;;;;;;130.00;61.53;;;;;;;1.21;84.96;99931.39;4144907;84;21098;-91
2021/12/13 12:15:03;;;;;;;137.07;64.27;;;;;;;1.18;84.78;99927.39;4141936;84;21101;-88
2021/12/13 12:21:28;;;;;;;;;;;;;;;1.22;84.90;99911.44;4148588;84;21175;-91
2021/12/13 12:27:35;;;;;;;55.63;25.60;;;;;;;1.13;84.04;99909.12;4101514;84;20468;-88
2021/12/13 12:33:40;;;;;;;79.90;34.70;;;;;;;1.11;84.35;99909.97;4105847;85;21110;-88
2021/12/13 12:39:58;;;;;;;64.25;30.08;;;;;;;1.13;84.41;99902.37;4111051;85;21098;-89
2021/12/13 12:46:06;;;;;;;80.42;35.45;;;;;;;1.17;84.26;99896.13;4103084;85;21085;-88
2021/12/13 12:52:09;;;;;;;107.10;49.27;;;;;;;1.14;83.91;99900.73;4108610;85;21083;-89
2021/12/13 12:58:25;;;;;;;92.57;39.08;;;;;;;1.04;83.90;99894.69;4108758;85;21062;-88
2021/12/13 13:04:31;;;;;;;59.50;25.57;;;;;;;0.93;83.88;99907.52;4102818;85;21062;-89
2021/12/13 13:16:37;;;;;;;71.28;37.65;;;;;;;0.84;83.80;99914.64;4111286;85;21143;-88
2021/12/13 13:22:43;;;;;;;82.55;38.55;;;;;;;0.79;83.84;99925.48;4024467;87;21098;-88
2021/12/13 13:28:49;;;;;;;81.10;39.92;;;;;;;0.74;83.87;99936.32;4147338;83;21105;-87
2021/12/13 13:34:56;;;;;;;85.05;40.83;;;;;;;0.70;84.00;99938.00;4166890;84;21025;-89
2021/12/13 13:40:58;;;;;;;90.97;41.60;;;;;;;0.69;83.99;99945.02;4077562;86;21606;-88
2021/12/13 13:47:09;;;;;;;93.33;45.08;;;;;;;0.63;84.00;99944.80;4056847;87;21793;-88
2021/12/13 13:53:22;;;;;;;93.42;43.15;;;;;;;0.58;84.00;99944.31;4094787;85;21155;-87
2021/12/13 13:59:26;;;;;;;94.35;44.33;;;;;;;0.44;83.98;99949.34;4083705;86;21068;-88
2021/12/13 14:05:27;;;;;;;85.45;39.95;;;;;;;0.29;84.12;99952.98;4014860;87;21085;-88
2021/12/13 14:11:29;;;;;;;74.55;37.58;;;;;;;0.21;83.98;99963.56;4024669;86;21113;-87
2021/12/13 14:17:51;;;;;;;81.10;37.53;;;;;;;0.16;83.92;99969.02;4001534;88;21103;-87
2021/12/13 14:23:56;;;;;;;84.25;41.05;;;;;;;0.14;83.97;99965.27;4155881;84;21032;-89
2021/12/13 14:30:20;;;;;;;93.75;44.00;;;;;;;0.07;83.98;99970.69;4164448;84;21136;-88
2021/12/13 14:36:35;;;;;;;94.35;42.33;;;;;;;-0.37;83.52;99963.52;4080108;86;21083;-87
2021/12/13 14:42:38;;;;;;;143.87;61.70;;;;;;;-0.37;83.52;99963.52;4093635;85;21027;-87
2021/12/13 14:48:40;;;;;;;115.80;53.17;;;;;;;-0.44;83.61;99989.12;4088045;86;21084;-88
2021/12/13 14:54:42;;;;;;;107.92;50.55;;;;;;;-0.52;83.78;100000.47;4079166;86;21560;-86
2021/12/13 15:00:52;;;;;;;116.67;55.45;;;;;;;-0.55;83.91;99995.09;4089591;85;21091;-87
2021/12/13 15:06:58;;;;;;;128.40;58.85;;;;;;;-0.61;83.91;99998.89;4093821;85;21113;-87
2021/12/13 15:13:03;;;;;;;169.90;74.58;;;;;;;-0.72;83.81;100009.44;4072961;86;21112;-86
2021/12/13 15:19:12;;;;;;;172.98;75.08;;;;;;;-0.87;84.02;100015.43;4094056;85;21140;-86
2021/12/13 15:25:20;;;;;;;178.70;81.02;;;;;;;-1.07;84.04;100022.23;4096689;85;21079;-87
2021/12/13 15:31:36;;;;;;;164.23;72.07;;;;;;;-1.17;84.02;100026.28;4087809;85;21590;-89
2021/12/13 15:37:42;;;;;;;164.67;74.47;;;;;;;-1.28;84.28;100024.17;4084009;85;20993;-86
2021/12/13 15:43:48;;;;;;;198.40;87.45;;;;;;;-1.38;84.16;100030.92;4085565;86;21086;-85
2021/12/13 15:49:50;;;;;;;173.47;79.47;;;;;;;-1.57;84.22;100029.32;4036271;87;21078;-87
2021/12/13 15:55:56;;;;;;;172.53;80.07;;;;;;;-1.68;84.59;100027.72;4029064;87;21131;-87
2021/12/13 16:02:06;;;;;;;159.03;76.70;;;;;;;-1.71;84.67;100038.22;4019100;87;21082;-88
2021/12/13 16:08:13;;;;;;;162.33;75.70;;;;;;;-1.72;84.72;100037.94;4065492;86;21043;-87
2021/12/13 16:14:29;;;;;;;165.77;77.63;;;;;;;-1.76;84.56;100042.24;4080506;86;21023;-87
2021/12/13 16:20:39;;;;;;;132.32;64.20;;;;;;;-1.96;84.38;100051.64;4086366;85;21991;-86
2021/12/13 16:26:42;;;;;;;166.83;75.80;;;;;;;-2.04;84.70;100058.88;4093958;85;21181;-88
2021/12/13 16:32:44;;;;;;;171.40;77.80;;;;;;;-2.25;84.65;100059.38;4115213;85;21079;-86
2021/12/13 16:38:51;;;;;;;169.13;75.77;;;;;;;-2.30;85.11;100058.58;4120344;85;21074;-86
2021/12/13 16:44:52;;;;;;;158.13;74.80;;;;;;;-2.36;85.00;100056.41;4120675;85;21668;-86
2021/12/13 16:50:56;;;;;;;170.13;76.50;;;;;;;-2.44;85.07;100054.23;4115729;85;21186;-91
2021/12/13 16:57:06;;;;;;;164.87;78.57;;;;;;;-2.48;85.29;100055.84;4114995;85;21556;-87
2021/12/13 17:03:12;;;;;;;148.57;70.10;;;;;;;-2.55;85.18;100063.87;4117781;85;21055;-87
2021/12/13 17:09:14;;;;;;;158.60;71.77;;;;;;;-2.61;85.21;100066.24;4117771;85;21069;-89
2021/12/13 17:15:17;;;;;;;171.47;77.80;;;;;;;-2.71;85.24;100080.41;4117080;85;21578;-87
2021/12/13 17:21:24;;;;;;;163.13;75.20;;;;;;;-2.81;85.46;100085.75;4112191;85;21075;-86
2021/12/13 17:27:32;;;;;;;158.43;73.53;;;;;;;-2.79;85.43;100081.47;4111923;85;21077;-87
2021/12/13 17:33:37;;;;;;;170.50;80.30;;;;;;;-2.85;85.84;100086.53;4117461;85;21574;-87
2021/12/13 17:39:45;;;;;;;161.45;74.27;;;;;;;-2.96;85.96;100085.66;4111143;85;21102;-87
2021/12/13 17:46:02;;;;;;;161.10;73.47;;;;;;;-3.02;85.99;100088.59;4112311;85;21087;-87
2021/12/13 17:52:04;;;;;;;160.60;74.07;;;;;;;-3.02;85.98;100093.95;3914976;85;9999747;-87
2021/12/13 17:58:20;;;;;;;166.50;76.37;;;;;;;-3.10;85.95;100096.56;3987840;87;21107;-89
2021/12/13 18:04:31;;;;;;;170.57;77.42;;;;;;;-3.26;85.82;100102.36;3983660;89;21075;-87
2021/12/13 18:10:33;;;;;;;172.37;79.73;;;;;;;-3.19;86.50;100108.05;3980149;87;21115;-89
2021/12/13 18:16:39;;;;;;;190.83;89.13;;;;;;;-3.10;86.61;100111.85;3993122;87;21161;-87
2021/12/13 18:23:11;;;;;;;195.10;83.82;;;;;;;-3.05;86.67;100108.66;3984473;88;21170;-89
2021/12/13 18:29:12;;;;;;;186.17;85.30;;;;;;;-3.03;86.66;100105.20;4035952;85;21132;-87
2021/12/13 18:35:29;;;;;;;200.37;94.53;;;;;;;-3.01;87.10;100096.89;4088889;85;21126;-86
2021/12/13 18:41:42;;;;;;;210.53;97.22;;;;;;;-2.94;87.39;100103.62;4082439;85;21051;-87
2021/12/13 18:47:56;;;;;;;198.87;90.83;;;;;;;-2.84;87.79;100106.89;4090256;85;21095;-86
2021/12/13 18:54:01;;;;;;;189.13;87.87;;;;;;;-2.65;88.02;100105.37;4087060;85;21597;-86
2021/12/13 19:00:24;;;;;;;210.97;99.67;;;;;;;-2.51;88.06;100105.98;4088636;85;21116;-87
2021/12/13 19:06:37;;;;;;;232.30;105.43;;;;;;;-2.50;88.02;100112.13;4091214;86;21079;-87
2021/12/13 19:12:47;;;;;;;259.03;115.83;;;;;;;-2.44;88.19;100113.75;4092255;85;21063;-86
2021/12/13 19:18:54;;;;;;;255.33;118.70;;;;;;;-2.46;88.23;100121.27;4088993;85;21063;-86
2021/12/13 19:25:10;;;;;;;265.63;116.87;;;;;;;-2.38;88.63;100114.85;4000302;87;21570;-88
2021/12/13 19:31:16;;;;;;;292.15;125.25;;;;;;;-2.24;88.81;100115.18;4083739;86;21038;-90
2021/12/13 19:37:23;;;;;;;291.70;127.30;;;;;;;-2.18;88.98;100119.48;4022682;86;21620;-87
2021/12/13 19:43:38;;;;;;;285.23;123.60;;;;;;;-2.06;89.05;100122.19;4168114;84;20985;-85
2021/12/13 19:50:10;;;;;;;283.43;128.70;;;;;;;-2.08;89.10;100125.67;4169278;84;21489;-86
2021/12/13 19:56:28;;;;;;;281.07;126.03;;;;;;;-1.98;89.30;100112.28;4159739;84;21036;-88
2021/12/13 20:02:39;;;;;;;287.40;125.93;;;;;;;-1.92;89.48;100121.95;4156990;84;21685;-86
2021/12/13 20:08:58;;;;;;;291.03;129.87;;;;;;;-1.81;89.76;100128.95;4161110;84;21850;-87
2021/12/13 20:15:21;;;;;;;298.73;137.83;;;;;;;-1.69;89.84;100128.67;4161010;84;21066;-88
2021/12/13 20:21:36;;;;;;;275.30;130.50;;;;;;;-1.67;89.73;100131.38;4138011;84;21113;-87
2021/12/13 20:27:47;;;;;;;275.47;125.03;;;;;;;-1.67;89.56;100135.40;4159050;84;22229;-86
2021/12/13 20:34:09;;;;;;;273.23;126.13;;;;;;;-1.63;89.81;100141.05;4174130;84;21086;-89
2021/12/13 20:40:25;;;;;;;290.17;134.60;;;;;;;-1.68;89.96;100141.82;4171445;84;20997;-87
2021/12/13 20:46:40;;;;;;;292.45;132.27;;;;;;;-1.58;90.18;100135.66;4158830;84;21057;-86
2021/12/13 20:52:42;;;;;;;299.73;132.00;;;;;;;-1.49;90.05;100132.73;4172248;84;21476;-86
2021/12/13 20:59:03;;;;;;;301.03;133.53;;;;;;;-1.47;90.40;100135.14;4165505;84;21058;-88
2021/12/13 21:05:14;;;;;;;292.03;132.17;;;;;;;-1.36;90.52;100137.53;4179474;84;21054;-87
2021/12/13 21:11:38;;;;;;;285.57;132.50;;;;;;;-1.29;90.44;100134.58;4171876;84;21001;-87
2021/12/13 21:17:52;;;;;;;294.20;135.10;;;;;;;-1.28;90.49;100126.25;4168474;84;21090;-87
2021/12/13 21:24:01;;;;;;;301.87;137.23;;;;;;;-1.25;90.55;100120.34;4166612;84;21109;-90
2021/12/13 21:30:16;;;;;;;304.17;141.77;;;;;;;-1.22;90.71;100121.70;4139377;84;21080;-89
2021/12/13 21:36:22;;;;;;;314.13;144.67;;;;;;;-1.22;90.58;100120.35;4104540;85;21043;-89
2021/12/13 21:42:26;;;;;;;306.68;144.65;;;;;;;-1.24;90.83;100120.62;4104923;85;21047;-87
2021/12/13 21:48:36;;;;;;;295.50;140.37;;;;;;;-1.22;91.12;100117.66;3944728;89;21044;-86
2021/12/13 21:54:46;;;;;;;301.10;139.37;;;;;;;-1.18;91.31;100116.84;3970176;88;21114;-88
2021/12/13 22:01:06;;;;;;;293.12;137.28;;;;;;;-1.19;91.38;100113.09;4101218;85;21555;-89
2021/12/13 22:07:10;;;;;;;280.53;134.27;;;;;;;-1.20;91.08;100108.77;3948830;89;21063;-87
2021/12/13 22:13:20;;;;;;;295.18;136.68;;;;;;;-1.21;91.63;100099.93;3960369;88;21433;-87
2021/12/13 22:19:30;;;;;;;275.83;131.23;;;;;;;-1.23;91.50;100102.08;4006456;87;21063;-86
2021/12/13 22:25:40;;;;;;;294.03;133.77;;;;;;;-1.23;91.72;100099.39;4020919;87;21146;-88
2021/12/13 22:31:46;;;;;;;277.45;132.25;;;;;;;-1.10;92.32;100093.46;4093824;83;21319;-86
2021/12/13 22:38:02;;;;;;;283.52;132.18;;;;;;;-1.10;92.32;100093.46;4037527;87;21660;-87
2021/12/13 22:44:12;;;;;;;273.73;130.07;;;;;;;-1.03;92.30;100099.87;4031988;87;21146;-86
2021/12/13 22:50:21;;;;;;;273.77;127.60;;;;;;;-1.04;92.32;100103.64;3988205;88;21438;-87
2021/12/13 22:56:24;;;;;;;271.82;126.45;;;;;;;-1.01;92.58;100107.12;4032635;87;21046;-86
2021/12/13 23:02:31;;;;;;;291.10;134.05;;;;;;;-0.99;92.49;100095.58;4031397;88;21574;-88
2021/12/13 23:08:36;;;;;;;312.05;140.05;;;;;;;-0.95;92.62;100103.34;4004664;88;21051;-88
2021/12/13 23:14:37;;;;;;;365.87;163.05;;;;;;;-0.93;92.78;100112.77;4034661;87;21681;-87
2021/12/13 23:20:40;;;;;;;317.18;144.60;;;;;;;-0.92;93.02;100111.67;4032186;88;21074;-86
2021/12/13 23:26:46;;;;;;;294.32;135.75;;;;;;;-0.86;93.27;100113.27;4035922;88;21039;-90
2021/12/13 23:32:54;;;;;;;288.37;136.12;;;;;;;-0.84;93.25;100113.00;4014464;87;21063;-86
2021/12/13 23:51:38;;;;;;;311.65;145.17;;;;;;;-0.85;93.72;100100.11;4091910;86;21641;-86
2021/12/13 23:57:39;;;;;;;294.98;138.00;;;;;;;-0.74;93.51;100111.63;4010217;87;21068;-86
